createdAt,value
2023-03-10T00:01:19.706Z,6.60
2023-03-10T00:04:05.099Z,6.60
2023-03-10T00:06:51.944Z,6.90
2023-03-10T00:09:37.337Z,6.90
2023-03-10T00:12:22.830Z,7.00
2023-03-10T00:15:09.783Z,7.20
2023-03-10T00:17:55.760Z,7.20
2023-03-10T00:20:41.333Z,6.80
2023-03-10T00:23:27.971Z,7.00
2023-03-10T00:26:14.426Z,7.50
2023-03-10T00:28:59.854Z,7.50
2023-03-10T00:31:45.408Z,6.30
2023-03-10T00:34:31.089Z,6.90
2023-03-10T00:37:16.797Z,7.30
2023-03-10T00:40:04.913Z,6.10
2023-03-10T00:42:50.436Z,6.70
2023-03-10T00:45:36.333Z,7.10
2023-03-10T00:48:21.626Z,7.00
2023-03-10T00:51:07.648Z,7.30
2023-03-10T00:53:53.388Z,7.30
2023-03-10T00:56:40.467Z,7.10
2023-03-10T00:59:25.840Z,7.30
2023-03-10T01:02:11.290Z,7.40
2023-03-10T01:04:56.834Z,7.70
2023-03-10T01:07:42.134Z,7.90
2023-03-10T01:10:27.503Z,8.10
2023-03-10T01:13:15.121Z,8.00
2023-03-10T01:16:01.119Z,8.20
2023-03-10T01:18:46.932Z,8.30
2023-03-10T01:21:34.146Z,8.70
2023-03-10T01:24:20.382Z,8.00
2023-03-10T01:27:05.977Z,8.10
2023-03-10T01:29:53.778Z,8.30
2023-03-10T01:32:41.240Z,8.20
2023-03-10T01:35:27.073Z,8.30
2023-03-10T01:38:13.023Z,8.30
2023-03-10T01:40:58.446Z,8.20
2023-03-10T01:43:45.103Z,8.20
2023-03-10T01:46:40.223Z,8.30
2023-03-10T01:49:33.649Z,7.90
2023-03-10T01:52:21.760Z,7.80
2023-03-10T01:55:11.601Z,7.90
2023-03-10T01:57:57.820Z,7.80
2023-03-10T02:00:43.722Z,8.00
2023-03-10T02:03:32.849Z,7.80
2023-03-10T02:06:19.885Z,7.70
2023-03-10T02:09:05.665Z,7.80
2023-03-10T02:11:51.860Z,7.60
2023-03-10T02:14:37.975Z,7.50
2023-03-10T02:17:24.908Z,7.80
2023-03-10T02:20:23.219Z,7.90
2023-03-10T02:23:10.577Z,8.10
2023-03-10T02:25:57.028Z,8.10
2023-03-10T02:28:44.517Z,8.10
2023-03-10T02:31:32.805Z,7.90
2023-03-10T02:34:18.833Z,8.20
2023-03-10T02:37:04.664Z,8.20
2023-03-10T02:39:50.165Z,8.10
2023-03-10T02:42:36.543Z,7.90
2023-03-10T02:45:24.206Z,7.80
2023-03-10T02:48:11.869Z,7.60
2023-03-10T02:50:59.084Z,7.70
2023-03-10T02:53:44.696Z,7.60
2023-03-10T02:56:32.346Z,7.70
2023-03-10T02:59:17.940Z,7.00
2023-03-10T03:02:09.056Z,7.10
2023-03-10T03:04:54.647Z,7.00
2023-03-10T03:07:40.672Z,7.50
2023-03-10T03:10:26.597Z,7.00
2023-03-10T03:13:12.515Z,7.10
2023-03-10T03:15:58.390Z,7.30
2023-03-10T03:18:45.600Z,7.50
2023-03-10T03:21:33.588Z,7.40
2023-03-10T03:24:21.061Z,7.50
2023-03-10T03:27:07.040Z,7.40
2023-03-10T03:29:53.201Z,7.40
2023-03-10T03:32:39.156Z,7.50
2023-03-10T03:35:27.456Z,7.50
2023-03-10T03:38:13.557Z,7.60
2023-03-10T03:40:59.509Z,7.90
2023-03-10T03:43:45.113Z,8.00
2023-03-10T03:46:31.442Z,8.10
2023-03-10T03:49:17.966Z,8.00
2023-03-10T03:52:06.767Z,8.00
2023-03-10T03:54:52.474Z,7.80
2023-03-10T03:57:38.443Z,7.50
2023-03-10T04:00:24.770Z,7.30
2023-03-10T04:03:18.639Z,7.70
2023-03-10T04:06:06.119Z,7.80
2023-03-10T04:08:53.106Z,7.30
2023-03-10T04:11:41.154Z,7.30
2023-03-10T04:14:27.308Z,7.40
2023-03-10T04:17:14.288Z,7.30
2023-03-10T04:20:07.004Z,7.00
2023-03-10T04:22:55.735Z,7.40
2023-03-10T04:25:49.247Z,7.60
2023-03-10T04:28:36.416Z,7.70
2023-03-10T04:31:21.994Z,7.80
2023-03-10T04:34:09.692Z,7.60
2023-03-10T04:36:56.434Z,7.70
2023-03-10T04:39:42.148Z,7.00
2023-03-10T04:42:29.496Z,6.90
2023-03-10T04:45:15.084Z,7.40
2023-03-10T04:48:02.536Z,7.70
2023-03-10T04:50:54.596Z,7.30
2023-03-10T04:53:40.729Z,7.50
2023-03-10T04:56:26.930Z,7.40
2023-03-10T04:59:13.887Z,7.40
2023-03-10T05:02:00.327Z,7.40
2023-03-10T05:04:46.252Z,7.30
2023-03-10T05:07:32.249Z,7.30
2023-03-10T05:10:17.982Z,7.70
2023-03-10T05:13:03.492Z,7.50
2023-03-10T05:15:50.603Z,7.80
2023-03-10T05:18:36.600Z,8.10
2023-03-10T05:21:23.038Z,7.80
2023-03-10T05:24:10.876Z,7.90
2023-03-10T05:26:57.205Z,8.10
2023-03-10T05:29:43.788Z,7.90
2023-03-10T05:32:38.326Z,7.90
2023-03-10T05:35:24.231Z,8.00
2023-03-10T05:38:10.475Z,7.80
2023-03-10T05:40:56.549Z,7.50
2023-03-10T05:43:42.629Z,7.90
2023-03-10T05:46:30.607Z,7.50
2023-03-10T05:49:19.411Z,7.20
2023-03-10T05:52:05.721Z,7.00
2023-03-10T05:54:51.513Z,7.20
2023-03-10T05:57:37.071Z,7.40
2023-03-10T06:00:22.718Z,7.50
2023-03-10T06:03:16.858Z,7.40
2023-03-10T06:06:04.060Z,7.10
2023-03-10T06:08:49.854Z,6.60
2023-03-10T06:11:35.569Z,6.60
2023-03-10T06:14:21.039Z,7.20
2023-03-10T06:17:06.598Z,7.30
2023-03-10T06:19:52.378Z,7.50
2023-03-10T06:22:39.061Z,7.50
2023-03-10T06:25:24.694Z,7.50
2023-03-10T06:28:10.576Z,7.20
2023-03-10T06:30:56.475Z,6.80
2023-03-10T06:33:42.002Z,7.10
2023-03-10T06:36:28.336Z,7.30
2023-03-10T06:39:15.336Z,7.10
2023-03-10T06:42:01.156Z,7.00
2023-03-10T06:44:49.191Z,6.90
2023-03-10T06:47:34.907Z,7.00
2023-03-10T06:50:20.374Z,6.60
2023-03-10T06:53:06.124Z,5.90
2023-03-10T06:55:59.686Z,6.40
2023-03-10T06:58:45.667Z,5.90
2023-03-10T07:01:32.145Z,5.60
2023-03-10T07:04:17.675Z,5.90
2023-03-10T07:07:03.341Z,6.20
2023-03-10T07:09:48.656Z,6.50
2023-03-10T07:12:35.398Z,6.30
2023-03-10T07:15:21.306Z,6.50
2023-03-10T07:18:06.672Z,6.80
2023-03-10T07:20:54.220Z,6.80
2023-03-10T07:23:39.825Z,6.60
2023-03-10T07:26:25.853Z,6.80
2023-03-10T07:29:12.801Z,7.00
2023-03-10T07:31:58.527Z,6.70
2023-03-10T07:34:45.017Z,6.90
2023-03-10T07:37:30.655Z,6.60
2023-03-10T07:40:16.274Z,7.10
2023-03-10T07:43:02.183Z,6.80
2023-03-10T07:45:51.403Z,6.80
2023-03-10T07:48:36.886Z,7.00
2023-03-10T07:51:22.558Z,7.10
2023-03-10T07:54:07.961Z,7.00
2023-03-10T07:56:53.470Z,6.80
2023-03-10T07:59:39.344Z,7.00
2023-03-10T08:02:25.873Z,7.10
2023-03-10T08:05:11.997Z,7.30
2023-03-10T08:07:57.414Z,7.70
2023-03-10T08:10:42.978Z,7.70
2023-03-10T08:13:28.523Z,7.90
2023-03-10T08:16:14.975Z,8.00
2023-03-10T08:19:02.116Z,7.60
2023-03-10T08:21:47.483Z,7.50
2023-03-10T08:24:32.970Z,7.60
2023-03-10T08:27:18.702Z,7.80
2023-03-10T08:30:04.630Z,7.90
2023-03-10T08:32:50.556Z,8.00
2023-03-10T08:35:38.360Z,8.10
2023-03-10T08:38:24.038Z,8.10
2023-03-10T08:41:10.423Z,8.10
2023-03-10T08:43:58.505Z,8.20
2023-03-10T08:46:46.591Z,8.10
2023-03-10T08:49:32.525Z,8.20
2023-03-10T08:52:19.640Z,8.50
2023-03-10T08:55:05.700Z,8.50
2023-03-10T08:57:51.206Z,8.20
2023-03-10T09:00:37.721Z,8.40
2023-03-10T09:03:23.862Z,8.70
2023-03-10T09:06:10.004Z,9.10
2023-03-10T09:08:57.296Z,8.70
2023-03-10T09:11:42.627Z,8.50
2023-03-10T09:14:28.082Z,8.60
2023-03-10T09:17:13.449Z,8.50
2023-03-10T09:19:59.374Z,8.60
2023-03-10T09:22:44.875Z,8.50
2023-03-10T09:25:31.984Z,8.20
2023-03-10T09:28:18.814Z,8.00
2023-03-10T09:31:04.864Z,8.50
2023-03-10T09:33:50.863Z,8.60
2023-03-10T09:36:36.880Z,8.40
2023-03-10T09:39:22.356Z,7.90
2023-03-10T09:42:14.901Z,7.70
2023-03-10T09:45:06.082Z,7.60
2023-03-10T09:48:04.860Z,7.30
2023-03-10T09:50:52.527Z,7.00
2023-03-10T09:53:43.921Z,6.80
2023-03-10T09:56:32.540Z,6.60
2023-03-10T09:59:21.994Z,7.40
2023-03-10T10:02:15.892Z,7.40
2023-03-10T10:05:04.249Z,7.60
2023-03-10T10:07:52.738Z,8.00
2023-03-10T10:10:38.565Z,8.10
2023-03-10T10:13:26.052Z,7.90
2023-03-10T10:16:33.595Z,7.90
2023-03-10T10:19:20.859Z,7.40
2023-03-10T10:22:08.570Z,7.70
2023-03-10T10:25:09.016Z,8.10
2023-03-10T10:27:55.457Z,7.90
2023-03-10T10:30:41.151Z,7.80
2023-03-10T10:33:28.246Z,8.00
2023-03-10T10:36:16.756Z,7.90
2023-03-10T10:39:04.016Z,8.00
2023-03-10T10:41:49.741Z,8.00
2023-03-10T10:44:39.641Z,8.00
2023-03-10T10:47:27.094Z,7.80
2023-03-10T10:50:21.037Z,7.60
2023-03-10T10:53:18.582Z,7.20
2023-03-10T10:56:05.841Z,7.50
2023-03-10T10:59:01.997Z,7.40
2023-03-10T11:01:49.278Z,7.50
2023-03-10T11:04:41.568Z,7.10
2023-03-10T11:07:28.368Z,7.00
2023-03-10T11:10:15.050Z,7.00
2023-03-10T11:13:04.130Z,7.20
2023-03-10T11:15:52.260Z,7.60
2023-03-10T11:18:40.216Z,7.40
2023-03-10T11:21:27.919Z,7.00
2023-03-10T11:24:17.383Z,6.80
2023-03-10T11:27:08.643Z,7.00
2023-03-10T11:30:00.580Z,7.10
2023-03-10T11:32:52.705Z,6.80
2023-03-10T11:35:43.926Z,6.70
2023-03-10T11:38:34.595Z,7.20
2023-03-10T11:41:23.627Z,7.30
2023-03-10T11:44:13.548Z,7.10
2023-03-10T11:47:01.029Z,7.20
2023-03-10T11:49:51.460Z,6.90
2023-03-10T11:52:37.394Z,7.40
2023-03-10T11:55:22.994Z,7.80
2023-03-10T11:58:17.892Z,7.60
2023-03-10T12:01:03.618Z,7.70
2023-03-10T12:03:53.572Z,7.40
2023-03-10T12:06:42.734Z,7.10
2023-03-10T12:09:31.488Z,7.10
2023-03-10T12:12:18.864Z,7.10
2023-03-10T12:15:10.160Z,7.10
2023-03-10T12:17:55.512Z,7.50
2023-03-10T12:20:40.652Z,7.30
2023-03-10T12:23:30.186Z,7.10
2023-03-10T12:26:15.738Z,7.20
2023-03-10T12:29:16.177Z,7.40
2023-03-10T12:32:03.663Z,6.90
2023-03-10T12:35:12.096Z,6.90
2023-03-10T12:38:12.469Z,6.90
2023-03-10T12:40:58.700Z,6.80
2023-03-10T12:44:02.093Z,6.50
2023-03-10T12:46:48.664Z,6.00
2023-03-10T12:49:39.115Z,6.30
2023-03-10T12:52:29.201Z,6.10
2023-03-10T12:55:16.950Z,6.60
2023-03-10T12:58:14.204Z,6.50
2023-03-10T13:01:01.734Z,6.30
2023-03-10T13:03:49.834Z,6.60
2023-03-10T13:06:38.708Z,6.20
2023-03-10T13:09:27.222Z,6.10
2023-03-10T13:12:15.083Z,5.80
2023-03-10T13:15:01.038Z,5.80
2023-03-10T13:17:46.738Z,5.80
2023-03-10T13:20:36.030Z,6.10
2023-03-10T13:23:24.381Z,5.80
2023-03-10T13:26:15.166Z,6.00
2023-03-10T13:29:01.932Z,5.90
2023-03-10T13:31:52.252Z,5.90
2023-03-10T13:34:38.132Z,5.80
2023-03-10T13:37:24.299Z,5.80
2023-03-10T13:40:16.298Z,5.90
2023-03-10T13:43:02.419Z,5.60
2023-03-10T13:45:53.776Z,5.50
2023-03-10T13:48:39.960Z,5.80
2023-03-10T13:51:26.173Z,5.80
2023-03-10T13:54:17.267Z,6.00
2023-03-10T13:57:09.188Z,6.10
2023-03-10T13:59:58.094Z,6.00
2023-03-10T14:02:46.942Z,6.10
2023-03-10T14:05:40.767Z,5.70
2023-03-10T14:08:28.657Z,5.80
2023-03-10T14:11:24.579Z,5.80
2023-03-10T14:14:12.666Z,6.10
2023-03-10T14:16:59.535Z,5.90
2023-03-10T14:19:48.881Z,5.60
2023-03-10T14:22:36.890Z,5.30
2023-03-10T14:25:23.880Z,5.00
2023-03-10T14:28:12.546Z,5.20
2023-03-10T14:31:00.407Z,4.90
2023-03-10T14:33:46.314Z,5.00
2023-03-10T14:36:31.907Z,5.20
2023-03-10T14:39:17.890Z,5.20
2023-03-10T14:42:03.744Z,5.00
2023-03-10T14:44:49.710Z,4.70
2023-03-10T14:47:36.593Z,4.70
2023-03-10T14:50:23.362Z,4.90
2023-03-10T14:53:09.519Z,4.60
2023-03-10T14:55:56.086Z,4.40
2023-03-10T14:58:44.803Z,4.50
2023-03-10T15:01:30.611Z,4.00
2023-03-10T15:04:17.959Z,4.10
2023-03-10T15:07:03.805Z,4.00
2023-03-10T15:09:52.558Z,3.80
2023-03-10T15:12:42.780Z,3.80
2023-03-10T15:15:32.006Z,3.80
2023-03-10T15:18:19.134Z,3.90
2023-03-10T15:21:06.636Z,3.90
2023-03-10T15:23:52.444Z,3.80
2023-03-10T15:26:38.090Z,3.90
2023-03-10T15:29:23.777Z,3.80
2023-03-10T15:32:09.293Z,3.50
2023-03-10T15:34:54.860Z,3.60
2023-03-10T15:37:42.603Z,3.10
2023-03-10T15:40:28.849Z,3.20
2023-03-10T15:43:14.822Z,3.10
2023-03-10T15:46:04.760Z,3.10
2023-03-10T15:48:50.237Z,2.70
2023-03-10T15:51:36.116Z,2.80
2023-03-10T15:54:23.072Z,2.80
2023-03-10T15:57:09.859Z,2.80
2023-03-10T15:59:55.954Z,2.80
2023-03-10T16:02:41.404Z,2.90
2023-03-10T16:05:27.278Z,3.00
2023-03-10T16:08:12.996Z,3.10
2023-03-10T16:11:00.094Z,3.20
2023-03-10T16:13:46.802Z,3.20
2023-03-10T16:16:32.741Z,3.30
2023-03-10T16:19:18.098Z,3.20
2023-03-10T16:22:03.639Z,3.30
2023-03-10T16:24:49.073Z,3.30
2023-03-10T16:27:36.022Z,3.40
2023-03-10T16:30:22.314Z,3.60
2023-03-10T16:33:07.653Z,3.70
2023-03-10T16:35:53.404Z,3.70
2023-03-10T16:38:38.812Z,3.60
2023-03-10T16:41:24.321Z,3.70
2023-03-10T16:44:12.794Z,3.70
2023-03-10T16:46:58.382Z,3.80
2023-03-10T16:49:44.484Z,3.70
2023-03-10T16:52:30.707Z,3.70
2023-03-10T16:55:18.260Z,3.50
2023-03-10T16:58:04.078Z,3.80
2023-03-10T17:00:51.099Z,3.80
2023-03-10T17:03:39.831Z,3.90
2023-03-10T17:06:26.595Z,4.00
2023-03-10T17:09:13.104Z,3.90
2023-03-10T17:11:58.616Z,4.10
2023-03-10T17:14:44.024Z,3.60
2023-03-10T17:17:32.437Z,3.70
2023-03-10T17:20:18.570Z,4.10
2023-03-10T17:23:04.396Z,3.90
2023-03-10T17:25:49.932Z,4.10
2023-03-10T17:28:35.480Z,4.00
2023-03-10T17:31:26.344Z,3.80
2023-03-10T17:34:13.365Z,4.00
2023-03-10T17:36:59.143Z,4.00
2023-03-10T17:39:44.399Z,4.30
2023-03-10T17:42:30.031Z,4.40
2023-03-10T17:45:15.601Z,4.60
2023-03-10T17:48:01.076Z,4.50
2023-03-10T17:50:48.078Z,4.60
2023-03-10T17:53:33.772Z,4.40
2023-03-10T17:56:19.521Z,4.50
2023-03-10T17:59:05.181Z,4.60
2023-03-10T18:01:50.901Z,4.60
2023-03-10T18:04:36.609Z,4.60
2023-03-10T18:07:23.773Z,4.70
2023-03-10T18:10:11.166Z,4.70
2023-03-10T18:12:57.095Z,4.90
2023-03-10T18:15:42.670Z,4.90
2023-03-10T18:18:28.582Z,5.00
2023-03-10T18:21:14.416Z,5.10
2023-03-10T18:24:01.587Z,4.90
2023-03-10T18:26:47.483Z,4.60
2023-03-10T18:30:51.882Z,4.60
2023-03-10T18:33:35.553Z,4.60
2023-03-10T18:36:23.215Z,4.70
2023-03-10T18:39:10.353Z,4.70
2023-03-10T18:41:56.256Z,4.80
2023-03-10T18:44:44.221Z,4.90
2023-03-10T18:47:30.003Z,4.90
2023-03-10T18:50:15.792Z,4.80
2023-03-10T18:53:01.424Z,4.90
2023-03-10T18:55:48.220Z,4.90
2023-03-10T18:58:33.774Z,4.80
2023-03-10T19:01:19.308Z,4.60
2023-03-10T19:04:05.111Z,4.90
2023-03-10T19:06:50.798Z,4.80
2023-03-10T19:09:36.259Z,4.70
2023-03-10T19:12:24.906Z,4.80
2023-03-10T19:15:11.901Z,4.90
2023-03-10T19:17:57.640Z,5.00
2023-03-10T19:20:43.793Z,4.90
2023-03-10T19:23:29.243Z,4.80
2023-03-10T19:26:15.469Z,4.50
2023-03-10T19:29:03.080Z,4.50
2023-03-10T19:31:48.782Z,4.50
2023-03-10T19:34:34.609Z,4.50
2023-03-10T19:37:21.689Z,4.50
2023-03-10T19:40:08.620Z,4.40
2023-03-10T19:42:54.241Z,4.30
2023-03-10T19:45:41.239Z,4.40
2023-03-10T19:48:26.777Z,4.50
2023-03-10T19:51:18.272Z,4.60
2023-03-10T19:54:05.295Z,4.50
2023-03-10T19:56:50.843Z,4.50
2023-03-10T19:59:35.926Z,4.60
2023-03-10T20:02:24.656Z,4.70
2023-03-10T20:05:10.912Z,4.70
2023-03-10T20:07:56.512Z,4.70
2023-03-10T20:10:42.737Z,4.60
2023-03-10T20:13:28.599Z,4.70
2023-03-10T20:16:15.257Z,4.80
2023-03-10T20:19:02.098Z,4.90
2023-03-10T20:21:47.715Z,5.10
2023-03-10T20:24:33.391Z,5.20
2023-03-10T20:27:19.119Z,5.20
2023-03-10T20:30:05.686Z,5.00
2023-03-10T20:32:51.595Z,4.70
2023-03-10T20:35:38.602Z,4.80
2023-03-10T20:38:24.036Z,4.70
2023-03-10T20:41:10.246Z,5.00
2023-03-10T20:43:55.941Z,5.20
2023-03-10T20:46:41.757Z,5.00
2023-03-10T20:49:27.430Z,5.00
2023-03-10T20:52:15.240Z,5.00
2023-03-10T20:55:01.153Z,5.00
2023-03-10T20:57:46.929Z,5.00
2023-03-10T21:00:32.135Z,5.10
2023-03-10T21:03:17.985Z,4.90
2023-03-10T21:08:40.838Z,4.90
2023-03-10T21:11:26.438Z,4.70
2023-03-10T21:14:12.375Z,5.00
2023-03-10T21:17:03.316Z,5.10
2023-03-10T21:19:48.758Z,5.10
2023-03-10T21:22:35.418Z,5.10
2023-03-10T21:25:25.909Z,4.90
2023-03-10T21:28:11.638Z,5.00
2023-03-10T21:30:57.733Z,4.90
2023-03-10T21:33:43.751Z,4.90
2023-03-10T21:36:29.187Z,4.80
2023-03-10T21:39:14.759Z,4.80
2023-03-10T21:42:01.773Z,4.80
2023-03-10T21:44:48.485Z,4.50
2023-03-10T21:47:34.564Z,4.90
2023-03-10T21:50:21.078Z,4.90
2023-03-10T21:53:06.984Z,5.10
2023-03-10T21:55:53.143Z,4.90
2023-03-10T21:58:40.387Z,5.00
2023-03-10T22:01:26.227Z,5.00
2023-03-10T22:06:45.239Z,5.10
2023-03-10T22:09:31.963Z,5.40
2023-03-10T22:12:18.577Z,5.40
2023-03-10T22:15:04.988Z,5.50
2023-03-10T22:17:50.854Z,5.50
2023-03-10T22:20:36.794Z,5.80
2023-03-10T22:23:24.156Z,5.70
2023-03-10T22:26:09.861Z,5.80
2023-03-10T22:28:55.524Z,5.70
2023-03-10T22:31:41.074Z,5.70
2023-03-10T22:34:26.720Z,5.70
2023-03-10T22:37:13.400Z,5.60
2023-03-10T22:40:01.049Z,5.50
2023-03-10T22:42:46.972Z,5.40
2023-03-10T22:45:32.842Z,5.40
2023-03-10T22:48:18.572Z,5.40
2023-03-10T22:51:05.548Z,5.30
2023-03-10T22:53:53.649Z,5.60
2023-03-10T22:56:41.150Z,5.50
2023-03-10T22:59:26.932Z,5.50
2023-03-10T23:02:12.995Z,5.50
2023-03-10T23:04:58.431Z,5.60
2023-03-10T23:07:44.240Z,5.70
2023-03-10T23:10:30.983Z,5.80
2023-03-10T23:13:18.130Z,5.80
2023-03-10T23:16:04.758Z,6.00
2023-03-10T23:18:50.760Z,5.90
2023-03-10T23:21:36.386Z,5.70
2023-03-10T23:24:22.416Z,5.70
2023-03-10T23:27:08.302Z,5.60
2023-03-10T23:29:55.119Z,5.60
2023-03-10T23:32:40.790Z,5.40
2023-03-10T23:35:27.783Z,5.50
2023-03-10T23:38:13.586Z,5.40
2023-03-10T23:40:59.264Z,5.40
2023-03-10T23:43:45.161Z,5.50
2023-03-10T23:46:31.967Z,5.60
2023-03-10T23:49:17.736Z,5.10
2023-03-10T23:52:03.103Z,5.20
2023-03-10T23:54:48.898Z,5.00
2023-03-10T23:57:34.335Z,5.10
